sensor_id;sensor_type;location;lat;lon;timestamp;temperature;humidity
31979;DHT22;18502;43.574;1.276;2022-07-29T00:02:04;22.60;98.60
31979;DHT22;18502;43.574;1.276;2022-07-29T00:04:29;22.60;98.70
31979;DHT22;18502;43.574;1.276;2022-07-29T00:06:55;22.60;98.70
31979;DHT22;18502;43.574;1.276;2022-07-29T00:09:21;22.60;99.00
31979;DHT22;18502;43.574;1.276;2022-07-29T00:11:46;22.60;99.20
31979;DHT22;18502;43.574;1.276;2022-07-29T00:14:12;22.60;98.80
31979;DHT22;18502;43.574;1.276;2022-07-29T00:16:38;22.60;98.90
31979;DHT22;18502;43.574;1.276;2022-07-29T00:19:04;22.60;98.90
31979;DHT22;18502;43.574;1.276;2022-07-29T00:21:30;22.60;98.60
31979;DHT22;18502;43.574;1.276;2022-07-29T00:23:56;22.60;98.40
31979;DHT22;18502;43.574;1.276;2022-07-29T00:26:21;22.60;98.40
31979;DHT22;18502;43.574;1.276;2022-07-29T00:28:47;22.60;98.70
31979;DHT22;18502;43.574;1.276;2022-07-29T00:31:14;22.60;98.60
31979;DHT22;18502;43.574;1.276;2022-07-29T00:33:39;22.50;98.80
31979;DHT22;18502;43.574;1.276;2022-07-29T00:36:05;22.50;98.60
31979;DHT22;18502;43.574;1.276;2022-07-29T00:38:31;22.30;98.80
31979;DHT22;18502;43.574;1.276;2022-07-29T00:40:57;22.30;99.10
31979;DHT22;18502;43.574;1.276;2022-07-29T00:43:22;22.30;99.30
31979;DHT22;18502;43.574;1.276;2022-07-29T00:45:48;22.10;99.70
31979;DHT22;18502;43.574;1.276;2022-07-29T00:48:13;22.10;99.90
31979;DHT22;18502;43.574;1.276;2022-07-29T00:50:39;22.10;99.90
31979;DHT22;18502;43.574;1.276;2022-07-29T00:53:07;22.10;99.90
31979;DHT22;18502;43.574;1.276;2022-07-29T00:55:33;22.10;99.90
31979;DHT22;18502;43.574;1.276;2022-07-29T00:57:59;22.00;99.90
31979;DHT22;18502;43.574;1.276;2022-07-29T01:00:27;22.00;99.90
31979;DHT22;18502;43.574;1.276;2022-07-29T01:02:53;21.90;99.90
31979;DHT22;18502;43.574;1.276;2022-07-29T01:05:20;21.70;99.90
31979;DHT22;18502;43.574;1.276;2022-07-29T01:07:49;21.70;99.90
31979;DHT22;18502;43.574;1.276;2022-07-29T01:10:18;21.70;99.90
31979;DHT22;18502;43.574;1.276;2022-07-29T01:12:46;21.50;99.90
31979;DHT22;18502;43.574;1.276;2022-07-29T01:15:13;21.50;99.90
31979;DHT22;18502;43.574;1.276;2022-07-29T01:17:48;21.40;99.90
31979;DHT22;18502;43.574;1.276;2022-07-29T01:28:57;21.50;99.90
31979;DHT22;18502;43.574;1.276;2022-07-29T01:31:33;21.40;99.90
31979;DHT22;18502;43.574;1.276;2022-07-29T01:34:04;21.30;99.90
31979;DHT22;18502;43.574;1.276;2022-07-29T01:36:35;21.20;99.90
31979;DHT22;18502;43.574;1.276;2022-07-29T01:39:14;21.10;99.90
31979;DHT22;18502;43.574;1.276;2022-07-29T01:41:49;21.00;99.90
31979;DHT22;18502;43.574;1.276;2022-07-29T01:44:26;21.00;99.90
31979;DHT22;18502;43.574;1.276;2022-07-29T01:46:58;21.00;99.90
31979;DHT22;18502;43.574;1.276;2022-07-29T01:49:35;20.90;99.90
31979;DHT22;18502;43.574;1.276;2022-07-29T01:52:07;20.90;99.90
31979;DHT22;18502;43.574;1.276;2022-07-29T01:54:38;20.90;99.90
31979;DHT22;18502;43.574;1.276;2022-07-29T01:57:09;21.00;99.90
31979;DHT22;18502;43.574;1.276;2022-07-29T01:59:37;21.00;99.90
31979;DHT22;18502;43.574;1.276;2022-07-29T02:02:04;21.10;99.90
31979;DHT22;18502;43.574;1.276;2022-07-29T02:04:35;21.10;99.90
31979;DHT22;18502;43.574;1.276;2022-07-29T02:07:04;21.00;99.90
31979;DHT22;18502;43.574;1.276;2022-07-29T02:09:34;20.90;99.90
31979;DHT22;18502;43.574;1.276;2022-07-29T02:12:02;20.90;99.90
31979;DHT22;18502;43.574;1.276;2022-07-29T02:14:31;20.80;99.90
31979;DHT22;18502;43.574;1.276;2022-07-29T02:16:59;20.80;99.90
31979;DHT22;18502;43.574;1.276;2022-07-29T02:19:26;20.80;99.90
31979;DHT22;18502;43.574;1.276;2022-07-29T02:21:54;20.80;99.90
31979;DHT22;18502;43.574;1.276;2022-07-29T02:24:22;20.70;99.90
31979;DHT22;18502;43.574;1.276;2022-07-29T02:26:50;20.60;99.90
31979;DHT22;18502;43.574;1.276;2022-07-29T02:29:18;20.40;99.90
31979;DHT22;18502;43.574;1.276;2022-07-29T02:31:46;20.30;99.90
31979;DHT22;18502;43.574;1.276;2022-07-29T02:34:14;20.30;99.90
31979;DHT22;18502;43.574;1.276;2022-07-29T02:36:41;20.40;99.90
31979;DHT22;18502;43.574;1.276;2022-07-29T02:39:08;20.30;99.90
31979;DHT22;18502;43.574;1.276;2022-07-29T02:41:51;20.20;99.90
31979;DHT22;18502;43.574;1.276;2022-07-29T02:44:19;20.30;99.90
31979;DHT22;18502;43.574;1.276;2022-07-29T02:50:00;20.20;99.90
31979;DHT22;18502;43.574;1.276;2022-07-29T02:55:00;20.10;99.90
31979;DHT22;18502;43.574;1.276;2022-07-29T02:57:42;20.10;99.90
31979;DHT22;18502;43.574;1.276;2022-07-29T03:00:10;20.30;99.90
31979;DHT22;18502;43.574;1.276;2022-07-29T03:02:41;20.20;99.90
31979;DHT22;18502;43.574;1.276;2022-07-29T03:05:11;20.30;99.90
31979;DHT22;18502;43.574;1.276;2022-07-29T03:07:38;20.40;99.90
31979;DHT22;18502;43.574;1.276;2022-07-29T03:10:06;20.50;99.90
31979;DHT22;18502;43.574;1.276;2022-07-29T03:12:33;20.30;99.90
31979;DHT22;18502;43.574;1.276;2022-07-29T03:14:59;20.40;99.90
31979;DHT22;18502;43.574;1.276;2022-07-29T03:17:26;20.20;99.90
31979;DHT22;18502;43.574;1.276;2022-07-29T03:19:52;20.20;99.90
31979;DHT22;18502;43.574;1.276;2022-07-29T03:22:18;20.10;99.90
31979;DHT22;18502;43.574;1.276;2022-07-29T03:24:43;20.10;99.90
31979;DHT22;18502;43.574;1.276;2022-07-29T03:27:09;20.10;99.90
31979;DHT22;18502;43.574;1.276;2022-07-29T03:29:35;19.90;99.90
31979;DHT22;18502;43.574;1.276;2022-07-29T03:32:02;20.20;99.90
31979;DHT22;18502;43.574;1.276;2022-07-29T03:34:28;20.20;99.90
31979;DHT22;18502;43.574;1.276;2022-07-29T03:36:54;20.10;99.90
31979;DHT22;18502;43.574;1.276;2022-07-29T03:39:23;20.20;99.90
31979;DHT22;18502;43.574;1.276;2022-07-29T03:41:53;20.20;99.90
31979;DHT22;18502;43.574;1.276;2022-07-29T03:44:21;20.10;99.90
31979;DHT22;18502;43.574;1.276;2022-07-29T03:46:48;20.00;99.90
31979;DHT22;18502;43.574;1.276;2022-07-29T03:49:15;20.20;99.90
31979;DHT22;18502;43.574;1.276;2022-07-29T03:51:42;20.20;99.90
31979;DHT22;18502;43.574;1.276;2022-07-29T03:54:08;20.20;99.90
31979;DHT22;18502;43.574;1.276;2022-07-29T03:56:38;20.10;99.90
31979;DHT22;18502;43.574;1.276;2022-07-29T03:59:05;20.00;99.90
31979;DHT22;18502;43.574;1.276;2022-07-29T04:01:33;19.90;99.90
31979;DHT22;18502;43.574;1.276;2022-07-29T04:04:01;19.80;99.90
31979;DHT22;18502;43.574;1.276;2022-07-29T04:06:27;19.90;99.90
31979;DHT22;18502;43.574;1.276;2022-07-29T04:08:52;19.80;99.90
31979;DHT22;18502;43.574;1.276;2022-07-29T04:11:18;19.60;99.90
31979;DHT22;18502;43.574;1.276;2022-07-29T04:13:44;19.50;99.90
31979;DHT22;18502;43.574;1.276;2022-07-29T04:16:10;19.40;99.90
31979;DHT22;18502;43.574;1.276;2022-07-29T04:18:36;19.50;99.90
31979;DHT22;18502;43.574;1.276;2022-07-29T04:21:01;19.40;99.90
31979;DHT22;18502;43.574;1.276;2022-07-29T04:23:32;19.40;99.90
31979;DHT22;18502;43.574;1.276;2022-07-29T04:26:00;19.30;99.90
31979;DHT22;18502;43.574;1.276;2022-07-29T04:28:26;19.10;99.90
31979;DHT22;18502;43.574;1.276;2022-07-29T04:30:52;18.80;99.90
31979;DHT22;18502;43.574;1.276;2022-07-29T04:33:17;18.90;99.90
31979;DHT22;18502;43.574;1.276;2022-07-29T04:35:43;18.80;99.90
31979;DHT22;18502;43.574;1.276;2022-07-29T04:38:09;18.70;99.90
31979;DHT22;18502;43.574;1.276;2022-07-29T04:40:34;18.00;99.90
31979;DHT22;18502;43.574;1.276;2022-07-29T04:43:01;17.90;99.90
31979;DHT22;18502;43.574;1.276;2022-07-29T04:45:27;18.10;99.90
31979;DHT22;18502;43.574;1.276;2022-07-29T04:47:54;18.10;99.90
31979;DHT22;18502;43.574;1.276;2022-07-29T04:50:20;18.10;99.90
31979;DHT22;18502;43.574;1.276;2022-07-29T04:52:45;18.20;99.90
31979;DHT22;18502;43.574;1.276;2022-07-29T04:55:11;18.20;99.90
31979;DHT22;18502;43.574;1.276;2022-07-29T04:57:37;18.20;99.90
31979;DHT22;18502;43.574;1.276;2022-07-29T05:00:04;18.40;99.90
31979;DHT22;18502;43.574;1.276;2022-07-29T05:02:31;18.20;99.90
31979;DHT22;18502;43.574;1.276;2022-07-29T05:04:56;18.30;99.90
31979;DHT22;18502;43.574;1.276;2022-07-29T05:07:22;18.60;99.90
31979;DHT22;18502;43.574;1.276;2022-07-29T05:09:48;18.70;99.90
31979;DHT22;18502;43.574;1.276;2022-07-29T05:12:13;18.80;99.90
31979;DHT22;18502;43.574;1.276;2022-07-29T05:14:39;18.80;99.90
31979;DHT22;18502;43.574;1.276;2022-07-29T05:17:04;18.80;99.90
31979;DHT22;18502;43.574;1.276;2022-07-29T05:19:30;18.90;99.90
31979;DHT22;18502;43.574;1.276;2022-07-29T05:21:57;18.80;99.90
31979;DHT22;18502;43.574;1.276;2022-07-29T05:24:22;18.30;99.90
31979;DHT22;18502;43.574;1.276;2022-07-29T05:26:48;18.10;99.90
31979;DHT22;18502;43.574;1.276;2022-07-29T05:29:14;17.90;99.90
31979;DHT22;18502;43.574;1.276;2022-07-29T05:31:40;18.00;99.90
31979;DHT22;18502;43.574;1.276;2022-07-29T05:34:05;17.90;99.90
31979;DHT22;18502;43.574;1.276;2022-07-29T05:36:31;18.10;99.90
31979;DHT22;18502;43.574;1.276;2022-07-29T05:38:56;18.00;99.90
31979;DHT22;18502;43.574;1.276;2022-07-29T05:41:23;17.80;99.90
31979;DHT22;18502;43.574;1.276;2022-07-29T05:43:48;17.70;99.90
31979;DHT22;18502;43.574;1.276;2022-07-29T05:46:14;18.00;99.90
31979;DHT22;18502;43.574;1.276;2022-07-29T05:48:40;18.10;99.90
31979;DHT22;18502;43.574;1.276;2022-07-29T05:51:06;17.90;99.90
31979;DHT22;18502;43.574;1.276;2022-07-29T05:53:32;17.80;99.90
31979;DHT22;18502;43.574;1.276;2022-07-29T05:55:57;18.10;99.90
31979;DHT22;18502;43.574;1.276;2022-07-29T05:58:23;18.30;99.90
31979;DHT22;18502;43.574;1.276;2022-07-29T06:00:49;18.40;99.90
31979;DHT22;18502;43.574;1.276;2022-07-29T06:03:15;18.40;99.90
31979;DHT22;18502;43.574;1.276;2022-07-29T06:05:41;18.60;99.90
31979;DHT22;18502;43.574;1.276;2022-07-29T06:08:06;18.60;99.90
31979;DHT22;18502;43.574;1.276;2022-07-29T06:10:34;18.40;99.90
31979;DHT22;18502;43.574;1.276;2022-07-29T06:13:00;18.20;99.90
31979;DHT22;18502;43.574;1.276;2022-07-29T06:15:25;17.90;99.90
31979;DHT22;18502;43.574;1.276;2022-07-29T06:17:51;17.80;99.90
31979;DHT22;18502;43.574;1.276;2022-07-29T06:20:18;17.80;99.90
31979;DHT22;18502;43.574;1.276;2022-07-29T06:22:44;17.90;99.90
31979;DHT22;18502;43.574;1.276;2022-07-29T06:25:09;18.00;99.90
31979;DHT22;18502;43.574;1.276;2022-07-29T06:27:35;17.90;99.90
31979;DHT22;18502;43.574;1.276;2022-07-29T06:30:01;18.10;99.90
31979;DHT22;18502;43.574;1.276;2022-07-29T06:32:27;18.10;99.90
31979;DHT22;18502;43.574;1.276;2022-07-29T06:34:53;18.50;99.90
31979;DHT22;18502;43.574;1.276;2022-07-29T06:37:18;18.70;99.90
31979;DHT22;18502;43.574;1.276;2022-07-29T06:39:44;18.40;99.90
31979;DHT22;18502;43.574;1.276;2022-07-29T06:42:10;18.30;99.90
31979;DHT22;18502;43.574;1.276;2022-07-29T06:44:35;18.10;99.90
31979;DHT22;18502;43.574;1.276;2022-07-29T06:47:01;18.10;99.90
31979;DHT22;18502;43.574;1.276;2022-07-29T06:49:27;18.00;99.90
31979;DHT22;18502;43.574;1.276;2022-07-29T06:51:54;18.00;99.90
31979;DHT22;18502;43.574;1.276;2022-07-29T06:54:19;17.80;99.90
31979;DHT22;18502;43.574;1.276;2022-07-29T06:56:45;17.90;99.90
31979;DHT22;18502;43.574;1.276;2022-07-29T06:59:12;17.90;99.90
31979;DHT22;18502;43.574;1.276;2022-07-29T07:01:42;18.10;99.90
31979;DHT22;18502;43.574;1.276;2022-07-29T07:04:08;18.20;99.90
31979;DHT22;18502;43.574;1.276;2022-07-29T07:06:35;18.00;99.90
31979;DHT22;18502;43.574;1.276;2022-07-29T07:09:01;18.00;99.90
31979;DHT22;18502;43.574;1.276;2022-07-29T07:11:27;18.20;99.90
31979;DHT22;18502;43.574;1.276;2022-07-29T07:13:53;18.40;99.90
31979;DHT22;18502;43.574;1.276;2022-07-29T07:16:18;18.60;99.90
31979;DHT22;18502;43.574;1.276;2022-07-29T07:18:44;18.70;99.90
31979;DHT22;18502;43.574;1.276;2022-07-29T07:21:10;18.70;99.90
31979;DHT22;18502;43.574;1.276;2022-07-29T07:23:36;18.90;99.90
31979;DHT22;18502;43.574;1.276;2022-07-29T07:26:02;18.80;99.90
31979;DHT22;18502;43.574;1.276;2022-07-29T07:28:28;18.40;99.90
31979;DHT22;18502;43.574;1.276;2022-07-29T07:30:54;18.40;99.90
31979;DHT22;18502;43.574;1.276;2022-07-29T07:33:20;18.80;99.90
31979;DHT22;18502;43.574;1.276;2022-07-29T07:35:46;18.70;99.90
31979;DHT22;18502;43.574;1.276;2022-07-29T07:38:12;18.80;99.90
31979;DHT22;18502;43.574;1.276;2022-07-29T07:40:38;18.90;99.90
31979;DHT22;18502;43.574;1.276;2022-07-29T07:43:04;18.80;99.90
31979;DHT22;18502;43.574;1.276;2022-07-29T07:45:30;18.80;99.90
31979;DHT22;18502;43.574;1.276;2022-07-29T07:47:58;18.50;99.90
31979;DHT22;18502;43.574;1.276;2022-07-29T07:50:24;18.70;99.90
31979;DHT22;18502;43.574;1.276;2022-07-29T07:52:51;18.90;99.90
31979;DHT22;18502;43.574;1.276;2022-07-29T07:55:18;18.70;99.90
31979;DHT22;18502;43.574;1.276;2022-07-29T07:57:44;18.80;99.90
31979;DHT22;18502;43.574;1.276;2022-07-29T08:00:12;18.60;99.90
31979;DHT22;18502;43.574;1.276;2022-07-29T08:02:39;18.50;99.90
31979;DHT22;18502;43.574;1.276;2022-07-29T08:05:06;18.70;99.90
31979;DHT22;18502;43.574;1.276;2022-07-29T08:07:33;18.70;99.90
31979;DHT22;18502;43.574;1.276;2022-07-29T08:09:58;18.70;99.90
31979;DHT22;18502;43.574;1.276;2022-07-29T08:12:24;18.80;99.90
31979;DHT22;18502;43.574;1.276;2022-07-29T08:14:50;19.10;99.90
31979;DHT22;18502;43.574;1.276;2022-07-29T08:17:15;19.30;99.90
31979;DHT22;18502;43.574;1.276;2022-07-29T08:19:41;19.40;99.90
31979;DHT22;18502;43.574;1.276;2022-07-29T08:22:07;19.40;99.90
31979;DHT22;18502;43.574;1.276;2022-07-29T08:24:32;19.20;99.90
31979;DHT22;18502;43.574;1.276;2022-07-29T08:27:17;19.20;99.90
31979;DHT22;18502;43.574;1.276;2022-07-29T08:29:43;19.00;99.90
31979;DHT22;18502;43.574;1.276;2022-07-29T08:32:08;19.00;99.90
31979;DHT22;18502;43.574;1.276;2022-07-29T08:34:35;18.80;99.90
31979;DHT22;18502;43.574;1.276;2022-07-29T08:37:00;18.70;99.90
31979;DHT22;18502;43.574;1.276;2022-07-29T08:39:26;18.80;99.90
31979;DHT22;18502;43.574;1.276;2022-07-29T08:41:52;18.80;99.90
31979;DHT22;18502;43.574;1.276;2022-07-29T08:44:19;18.70;99.90
31979;DHT22;18502;43.574;1.276;2022-07-29T08:46:45;18.80;99.90
31979;DHT22;18502;43.574;1.276;2022-07-29T08:49:11;18.80;99.90
31979;DHT22;18502;43.574;1.276;2022-07-29T08:51:39;18.90;99.90
31979;DHT22;18502;43.574;1.276;2022-07-29T08:54:06;19.10;99.90
31979;DHT22;18502;43.574;1.276;2022-07-29T08:56:34;19.20;99.90
31979;DHT22;18502;43.574;1.276;2022-07-29T08:59:03;19.20;99.90
31979;DHT22;18502;43.574;1.276;2022-07-29T09:01:32;19.10;99.90
31979;DHT22;18502;43.574;1.276;2022-07-29T09:03:59;19.20;99.90
31979;DHT22;18502;43.574;1.276;2022-07-29T09:06:30;19.40;99.90
31979;DHT22;18502;43.574;1.276;2022-07-29T09:08:59;19.50;99.90
31979;DHT22;18502;43.574;1.276;2022-07-29T09:11:25;20.10;99.90
31979;DHT22;18502;43.574;1.276;2022-07-29T09:13:51;20.80;99.90
31979;DHT22;18502;43.574;1.276;2022-07-29T09:16:16;21.00;99.90
31979;DHT22;18502;43.574;1.276;2022-07-29T09:18:44;21.00;99.90
31979;DHT22;18502;43.574;1.276;2022-07-29T09:21:12;21.30;99.90
31979;DHT22;18502;43.574;1.276;2022-07-29T09:26:31;21.40;99.90
31979;DHT22;18502;43.574;1.276;2022-07-29T09:28:57;21.40;99.90
31979;DHT22;18502;43.574;1.276;2022-07-29T09:31:33;21.40;99.90
31979;DHT22;18502;43.574;1.276;2022-07-29T09:33:59;21.50;99.90
31979;DHT22;18502;43.574;1.276;2022-07-29T09:36:26;21.60;99.90
31979;DHT22;18502;43.574;1.276;2022-07-29T09:39:03;21.80;99.90
31979;DHT22;18502;43.574;1.276;2022-07-29T09:41:29;21.90;99.90
31979;DHT22;18502;43.574;1.276;2022-07-29T09:43:59;22.40;99.90
31979;DHT22;18502;43.574;1.276;2022-07-29T09:46:25;23.00;99.90
31979;DHT22;18502;43.574;1.276;2022-07-29T09:49:07;23.20;99.90
31979;DHT22;18502;43.574;1.276;2022-07-29T09:51:36;23.20;99.90
31979;DHT22;18502;43.574;1.276;2022-07-29T09:54:21;23.80;99.90
31979;DHT22;18502;43.574;1.276;2022-07-29T09:56:48;23.20;99.90
31979;DHT22;18502;43.574;1.276;2022-07-29T09:59:14;24.00;99.90
31979;DHT22;18502;43.574;1.276;2022-07-29T10:01:40;23.90;99.90
31979;DHT22;18502;43.574;1.276;2022-07-29T10:04:06;24.90;99.90
31979;DHT22;18502;43.574;1.276;2022-07-29T10:06:32;25.50;99.90
31979;DHT22;18502;43.574;1.276;2022-07-29T10:09:11;24.90;99.90
31979;DHT22;18502;43.574;1.276;2022-07-29T10:11:36;25.60;99.90
31979;DHT22;18502;43.574;1.276;2022-07-29T10:14:03;25.90;99.90
31979;DHT22;18502;43.574;1.276;2022-07-29T10:16:29;26.50;99.90
31979;DHT22;18502;43.574;1.276;2022-07-29T10:18:58;26.70;99.90
31979;DHT22;18502;43.574;1.276;2022-07-29T10:21:25;26.40;99.90
31979;DHT22;18502;43.574;1.276;2022-07-29T10:23:52;26.00;99.90
31979;DHT22;18502;43.574;1.276;2022-07-29T10:26:20;25.30;99.90
31979;DHT22;18502;43.574;1.276;2022-07-29T10:28:45;24.80;99.90
31979;DHT22;18502;43.574;1.276;2022-07-29T10:31:29;25.20;99.90
31979;DHT22;18502;43.574;1.276;2022-07-29T10:34:18;25.90;99.90
31979;DHT22;18502;43.574;1.276;2022-07-29T10:37:04;26.20;99.90
31979;DHT22;18502;43.574;1.276;2022-07-29T10:39:56;26.70;99.90
31979;DHT22;18502;43.574;1.276;2022-07-29T10:42:28;26.40;99.90
31979;DHT22;18502;43.574;1.276;2022-07-29T10:44:54;27.40;99.90
31979;DHT22;18502;43.574;1.276;2022-07-29T10:47:26;28.40;99.90
31979;DHT22;18502;43.574;1.276;2022-07-29T10:49:59;28.40;99.90
31979;DHT22;18502;43.574;1.276;2022-07-29T10:55:34;27.60;99.90
31979;DHT22;18502;43.574;1.276;2022-07-29T10:58:17;27.30;99.90
31979;DHT22;18502;43.574;1.276;2022-07-29T11:00:45;28.30;99.90
31979;DHT22;18502;43.574;1.276;2022-07-29T11:03:43;28.20;99.90
31979;DHT22;18502;43.574;1.276;2022-07-29T11:06:13;27.70;99.90
31979;DHT22;18502;43.574;1.276;2022-07-29T11:08:40;28.00;99.90
31979;DHT22;18502;43.574;1.276;2022-07-29T11:13:53;28.40;99.90
31979;DHT22;18502;43.574;1.276;2022-07-29T11:16:22;27.90;99.90
31979;DHT22;18502;43.574;1.276;2022-07-29T11:21:37;28.00;99.90
31979;DHT22;18502;43.574;1.276;2022-07-29T11:24:18;28.40;99.90
31979;DHT22;18502;43.574;1.276;2022-07-29T11:27:06;28.10;99.90
31979;DHT22;18502;43.574;1.276;2022-07-29T11:29:32;28.30;99.90
31979;DHT22;18502;43.574;1.276;2022-07-29T11:32:13;28.40;99.90
31979;DHT22;18502;43.574;1.276;2022-07-29T11:34:45;28.60;99.90
31979;DHT22;18502;43.574;1.276;2022-07-29T11:44:58;32.20;99.90
31979;DHT22;18502;43.574;1.276;2022-07-29T11:47:25;33.80;99.90
31979;DHT22;18502;43.574;1.276;2022-07-29T11:49:53;35.10;99.90
31979;DHT22;18502;43.574;1.276;2022-07-29T11:52:20;33.90;99.90
31979;DHT22;18502;43.574;1.276;2022-07-29T11:54:50;32.60;99.90
31979;DHT22;18502;43.574;1.276;2022-07-29T11:57:17;31.60;99.90
31979;DHT22;18502;43.574;1.276;2022-07-29T11:59:45;30.60;99.90
31979;DHT22;18502;43.574;1.276;2022-07-29T12:02:12;29.70;99.90
31979;DHT22;18502;43.574;1.276;2022-07-29T12:04:55;30.00;99.90
31979;DHT22;18502;43.574;1.276;2022-07-29T12:07:31;28.80;99.90
31979;DHT22;18502;43.574;1.276;2022-07-29T12:09:57;28.40;99.90
31979;DHT22;18502;43.574;1.276;2022-07-29T12:12:23;28.20;99.90
31979;DHT22;18502;43.574;1.276;2022-07-29T12:14:49;27.80;99.90
31979;DHT22;18502;43.574;1.276;2022-07-29T12:19:54;28.20;99.90
31979;DHT22;18502;43.574;1.276;2022-07-29T12:22:37;29.00;99.90
31979;DHT22;18502;43.574;1.276;2022-07-29T12:25:10;31.60;99.90
31979;DHT22;18502;43.574;1.276;2022-07-29T12:27:37;33.30;99.90
31979;DHT22;18502;43.574;1.276;2022-07-29T12:30:09;31.30;99.90
31979;DHT22;18502;43.574;1.276;2022-07-29T12:35:09;35.70;99.90
31979;DHT22;18502;43.574;1.276;2022-07-29T12:37:36;34.50;98.20
31979;DHT22;18502;43.574;1.276;2022-07-29T12:40:04;31.40;99.90
31979;DHT22;18502;43.574;1.276;2022-07-29T12:42:30;29.40;99.90
31979;DHT22;18502;43.574;1.276;2022-07-29T12:44:56;28.30;99.90
31979;DHT22;18502;43.574;1.276;2022-07-29T12:47:22;27.70;99.90
31979;DHT22;18502;43.574;1.276;2022-07-29T12:49:49;27.50;99.90
31979;DHT22;18502;43.574;1.276;2022-07-29T12:52:31;27.60;99.90
31979;DHT22;18502;43.574;1.276;2022-07-29T12:54:57;27.70;99.90
31979;DHT22;18502;43.574;1.276;2022-07-29T12:57:23;27.10;99.90
31979;DHT22;18502;43.574;1.276;2022-07-29T13:02:28;27.00;99.90
31979;DHT22;18502;43.574;1.276;2022-07-29T13:04:58;26.20;99.90
31979;DHT22;18502;43.574;1.276;2022-07-29T13:07:25;26.50;99.90
31979;DHT22;18502;43.574;1.276;2022-07-29T13:09:52;27.00;99.90
31979;DHT22;18502;43.574;1.276;2022-07-29T13:12:18;26.80;99.90
31979;DHT22;18502;43.574;1.276;2022-07-29T13:14:46;27.30;99.90
31979;DHT22;18502;43.574;1.276;2022-07-29T13:17:22;27.30;99.90
31979;DHT22;18502;43.574;1.276;2022-07-29T13:19:50;27.70;99.90
31979;DHT22;18502;43.574;1.276;2022-07-29T13:22:20;27.40;99.90
31979;DHT22;18502;43.574;1.276;2022-07-29T13:24:46;26.80;99.90
31979;DHT22;18502;43.574;1.276;2022-07-29T13:27:14;27.00;99.90
31979;DHT22;18502;43.574;1.276;2022-07-29T13:29:41;27.30;99.90
31979;DHT22;18502;43.574;1.276;2022-07-29T13:32:06;27.60;99.90
31979;DHT22;18502;43.574;1.276;2022-07-29T13:34:32;27.00;99.90
31979;DHT22;18502;43.574;1.276;2022-07-29T13:36:58;27.10;99.90
31979;DHT22;18502;43.574;1.276;2022-07-29T13:39:24;27.30;99.90
31979;DHT22;18502;43.574;1.276;2022-07-29T13:41:49;27.80;99.90
31979;DHT22;18502;43.574;1.276;2022-07-29T13:44:15;28.10;99.90
31979;DHT22;18502;43.574;1.276;2022-07-29T13:46:41;27.70;99.90
31979;DHT22;18502;43.574;1.276;2022-07-29T13:49:06;29.60;99.90
31979;DHT22;18502;43.574;1.276;2022-07-29T13:51:32;32.80;99.90
31979;DHT22;18502;43.574;1.276;2022-07-29T13:53:58;29.90;99.90
31979;DHT22;18502;43.574;1.276;2022-07-29T13:56:23;30.50;99.90
31979;DHT22;18502;43.574;1.276;2022-07-29T13:58:49;34.50;99.90
31979;DHT22;18502;43.574;1.276;2022-07-29T14:01:15;36.30;99.90
31979;DHT22;18502;43.574;1.276;2022-07-29T14:03:40;33.00;99.90
31979;DHT22;18502;43.574;1.276;2022-07-29T14:06:08;32.30;99.90
31979;DHT22;18502;43.574;1.276;2022-07-29T14:08:34;30.90;99.90
31979;DHT22;18502;43.574;1.276;2022-07-29T14:11:00;28.30;99.90
31979;DHT22;18502;43.574;1.276;2022-07-29T14:13:26;27.20;99.90
31979;DHT22;18502;43.574;1.276;2022-07-29T14:15:52;27.90;99.90
31979;DHT22;18502;43.574;1.276;2022-07-29T14:18:18;28.20;99.90
31979;DHT22;18502;43.574;1.276;2022-07-29T14:20:43;28.00;99.90
31979;DHT22;18502;43.574;1.276;2022-07-29T14:23:09;28.40;99.90
31979;DHT22;18502;43.574;1.276;2022-07-29T14:25:35;29.10;99.90
31979;DHT22;18502;43.574;1.276;2022-07-29T14:28:00;30.00;99.90
31979;DHT22;18502;43.574;1.276;2022-07-29T14:30:26;32.60;99.90
31979;DHT22;18502;43.574;1.276;2022-07-29T14:32:52;33.60;99.90
31979;DHT22;18502;43.574;1.276;2022-07-29T14:35:17;36.40;94.20
31979;DHT22;18502;43.574;1.276;2022-07-29T14:37:43;41.40;89.60
31979;DHT22;18502;43.574;1.276;2022-07-29T14:40:10;39.10;81.30
31979;DHT22;18502;43.574;1.276;2022-07-29T14:42:36;36.90;83.40
31979;DHT22;18502;43.574;1.276;2022-07-29T14:45:03;37.00;81.30
31979;DHT22;18502;43.574;1.276;2022-07-29T14:47:29;37.30;81.70
31979;DHT22;18502;43.574;1.276;2022-07-29T14:49:55;38.70;75.50
31979;DHT22;18502;43.574;1.276;2022-07-29T14:52:21;35.00;78.20
31979;DHT22;18502;43.574;1.276;2022-07-29T14:54:46;30.60;85.50
31979;DHT22;18502;43.574;1.276;2022-07-29T14:57:12;30.10;91.50
31979;DHT22;18502;43.574;1.276;2022-07-29T14:59:38;29.70;91.10
31979;DHT22;18502;43.574;1.276;2022-07-29T15:02:04;30.00;91.30
31979;DHT22;18502;43.574;1.276;2022-07-29T15:04:30;30.00;91.50
31979;DHT22;18502;43.574;1.276;2022-07-29T15:06:55;33.40;91.00
31979;DHT22;18502;43.574;1.276;2022-07-29T15:09:21;35.60;82.00
31979;DHT22;18502;43.574;1.276;2022-07-29T15:11:46;35.40;79.30
31979;DHT22;18502;43.574;1.276;2022-07-29T15:14:12;33.50;82.20
31979;DHT22;18502;43.574;1.276;2022-07-29T15:16:39;32.50;82.70
31979;DHT22;18502;43.574;1.276;2022-07-29T15:19:05;36.10;81.30
31979;DHT22;18502;43.574;1.276;2022-07-29T15:21:31;34.30;81.00
31979;DHT22;18502;43.574;1.276;2022-07-29T15:23:57;32.50;82.20
31979;DHT22;18502;43.574;1.276;2022-07-29T15:26:23;32.50;84.00
31979;DHT22;18502;43.574;1.276;2022-07-29T15:28:49;33.10;84.10
31979;DHT22;18502;43.574;1.276;2022-07-29T15:31:14;32.70;84.80
31979;DHT22;18502;43.574;1.276;2022-07-29T15:33:40;31.60;85.40
31979;DHT22;18502;43.574;1.276;2022-07-29T15:36:06;29.70;89.80
31979;DHT22;18502;43.574;1.276;2022-07-29T15:38:32;29.40;90.90
31979;DHT22;18502;43.574;1.276;2022-07-29T15:40:58;29.60;91.40
31979;DHT22;18502;43.574;1.276;2022-07-29T15:43:24;30.10;92.00
31979;DHT22;18502;43.574;1.276;2022-07-29T15:45:49;34.20;89.00
31979;DHT22;18502;43.574;1.276;2022-07-29T15:48:37;36.20;85.20
31979;DHT22;18502;43.574;1.276;2022-07-29T15:51:03;37.70;80.80
31979;DHT22;18502;43.574;1.276;2022-07-29T15:53:29;35.50;77.30
31979;DHT22;18502;43.574;1.276;2022-07-29T15:55:55;33.60;83.00
31979;DHT22;18502;43.574;1.276;2022-07-29T15:58:20;35.50;82.20
31979;DHT22;18502;43.574;1.276;2022-07-29T16:00:47;35.70;81.30
31979;DHT22;18502;43.574;1.276;2022-07-29T16:03:13;34.60;83.20
31979;DHT22;18502;43.574;1.276;2022-07-29T16:05:39;34.60;82.10
31979;DHT22;18502;43.574;1.276;2022-07-29T16:08:05;34.40;82.80
31979;DHT22;18502;43.574;1.276;2022-07-29T16:10:30;35.50;80.00
31979;DHT22;18502;43.574;1.276;2022-07-29T16:12:56;34.60;82.30
31979;DHT22;18502;43.574;1.276;2022-07-29T16:15:22;33.70;81.60